createdAt,value
2019-03-25T00:02:30.231Z,4.00
2019-03-25T00:05:01.129Z,4.00
2019-03-25T00:07:32.069Z,4.10
2019-03-25T00:10:02.950Z,4.00
2019-03-25T00:12:34.088Z,4.00
2019-03-25T00:15:05.277Z,3.90
2019-03-25T00:17:37.451Z,3.90
2019-03-25T00:20:08.304Z,3.90
2019-03-25T00:22:39.226Z,3.90
2019-03-25T00:25:10.197Z,3.90
2019-03-25T00:27:41.207Z,4.00
2019-03-25T00:30:12.342Z,3.90
2019-03-25T00:32:43.268Z,4.00
2019-03-25T00:35:14.162Z,4.00
2019-03-25T00:37:45.070Z,4.00
2019-03-25T00:40:15.969Z,4.00
2019-03-25T00:42:47.050Z,4.10
2019-03-25T00:45:17.961Z,4.10
2019-03-25T00:47:49.306Z,4.10
2019-03-25T00:50:20.265Z,4.20
2019-03-25T00:52:52.365Z,4.20
2019-03-25T00:55:23.273Z,4.20
2019-03-25T00:57:54.216Z,4.30
2019-03-25T01:00:25.210Z,4.30
2019-03-25T01:02:56.122Z,4.30
2019-03-25T01:05:27.038Z,4.30
2019-03-25T01:07:57.978Z,4.40
2019-03-25T01:10:28.892Z,4.40
2019-03-25T01:12:59.812Z,4.40
2019-03-25T01:15:30.714Z,4.40
2019-03-25T01:18:01.633Z,4.50
2019-03-25T01:20:32.550Z,4.40
2019-03-25T01:23:03.570Z,4.40
2019-03-25T01:25:35.537Z,4.50
2019-03-25T01:28:06.572Z,4.40
2019-03-25T01:30:37.474Z,4.50
2019-03-25T01:33:08.414Z,4.50
2019-03-25T01:35:39.297Z,4.40
2019-03-25T01:38:10.310Z,4.50
2019-03-25T01:40:41.189Z,4.40
2019-03-25T01:43:12.191Z,4.40
2019-03-25T01:45:43.106Z,4.40
2019-03-25T01:48:14.110Z,4.40
2019-03-25T01:50:45.006Z,4.30
2019-03-25T01:53:16.049Z,4.30
2019-03-25T01:55:46.942Z,4.30
2019-03-25T01:58:17.947Z,4.30
2019-03-25T02:00:48.885Z,4.30
2019-03-25T02:03:19.901Z,4.30
2019-03-25T02:05:51.929Z,4.30
2019-03-25T02:08:23.321Z,4.30
2019-03-25T02:10:54.247Z,4.30
2019-03-25T02:13:25.264Z,4.30
2019-03-25T02:15:56.218Z,4.30
2019-03-25T02:18:27.156Z,4.30
2019-03-25T02:20:58.033Z,4.30
2019-03-25T02:23:28.953Z,4.30
2019-03-25T02:25:59.850Z,4.30
2019-03-25T02:28:30.774Z,4.30
2019-03-25T02:31:01.674Z,4.20
2019-03-25T02:33:32.583Z,4.20
2019-03-25T02:36:03.562Z,4.20
2019-03-25T02:38:34.481Z,4.20
2019-03-25T02:41:05.365Z,4.10
2019-03-25T02:43:36.697Z,4.10
2019-03-25T02:46:08.558Z,4.10
2019-03-25T02:48:39.482Z,4.10
2019-03-25T02:51:10.391Z,4.10
2019-03-25T02:53:41.325Z,4.10
2019-03-25T02:56:12.222Z,4.10
2019-03-25T02:58:43.122Z,4.10
2019-03-25T03:01:14.196Z,4.00
2019-03-25T03:03:45.205Z,4.00
2019-03-25T03:06:16.120Z,4.00
2019-03-25T03:08:47.621Z,4.00
2019-03-25T03:11:18.631Z,4.00
2019-03-25T03:13:49.593Z,4.00
2019-03-25T03:16:20.475Z,4.00
2019-03-25T03:18:51.499Z,3.90
2019-03-25T03:21:22.393Z,3.90
2019-03-25T03:23:53.306Z,3.90
2019-03-25T03:26:24.177Z,3.90
2019-03-25T03:28:55.198Z,3.90
2019-03-25T03:31:26.336Z,3.90
2019-03-25T03:33:57.490Z,3.90
2019-03-25T03:36:28.438Z,3.90
2019-03-25T03:38:59.391Z,3.90
2019-03-25T03:41:30.284Z,3.90
2019-03-25T03:44:01.226Z,3.90
2019-03-25T03:46:32.116Z,4.00
2019-03-25T03:49:03.478Z,4.00
2019-03-25T03:51:34.466Z,4.00
2019-03-25T03:54:05.765Z,3.90
2019-03-25T03:56:37.778Z,4.00
2019-03-25T03:59:08.994Z,4.00
2019-03-25T04:01:40.018Z,4.00
2019-03-25T04:04:10.935Z,4.00
2019-03-25T04:06:41.831Z,4.00
2019-03-25T04:09:13.051Z,4.00
2019-03-25T04:11:43.934Z,4.00
2019-03-25T04:14:14.889Z,4.10
2019-03-25T04:16:45.766Z,4.10
2019-03-25T04:19:16.686Z,4.10
2019-03-25T04:21:47.581Z,4.20
2019-03-25T04:24:18.491Z,4.20
2019-03-25T04:26:49.395Z,4.20
2019-03-25T04:29:20.411Z,4.30
2019-03-25T04:31:51.298Z,4.30
2019-03-25T04:34:22.247Z,4.40
2019-03-25T04:36:53.122Z,4.40
2019-03-25T04:39:24.135Z,4.40
2019-03-25T04:41:55.031Z,4.50
2019-03-25T04:44:25.937Z,4.50
2019-03-25T04:46:56.834Z,4.50
2019-03-25T04:49:28.174Z,4.60
2019-03-25T04:51:59.062Z,4.60
2019-03-25T04:54:29.995Z,4.60
2019-03-25T04:57:00.885Z,4.60
2019-03-25T04:59:31.806Z,4.70
2019-03-25T05:02:02.845Z,4.70
2019-03-25T05:04:34.053Z,4.70
2019-03-25T05:07:04.946Z,4.70
2019-03-25T05:09:35.854Z,4.70
2019-03-25T05:12:06.730Z,4.80
2019-03-25T05:14:37.750Z,4.80
2019-03-25T05:17:08.637Z,4.80
2019-03-25T05:19:39.545Z,4.80
2019-03-25T05:22:11.191Z,4.80
2019-03-25T05:24:42.186Z,4.90
2019-03-25T05:27:13.070Z,4.90
2019-03-25T05:29:44.005Z,4.90
2019-03-25T05:32:14.898Z,4.90
2019-03-25T05:34:46.813Z,5.00
2019-03-25T05:37:17.701Z,5.00
2019-03-25T05:39:48.773Z,5.00
2019-03-25T05:42:19.674Z,5.00
2019-03-25T05:44:50.595Z,4.90
2019-03-25T05:47:21.873Z,4.80
2019-03-25T05:49:52.841Z,4.80
2019-03-25T05:52:24.035Z,4.60
2019-03-25T05:54:54.953Z,4.50
2019-03-25T05:57:25.835Z,4.40
2019-03-25T05:59:56.858Z,4.20
2019-03-25T06:02:27.881Z,4.10
2019-03-25T06:04:58.914Z,4.10
2019-03-25T06:07:29.805Z,4.10
2019-03-25T06:10:00.738Z,4.10
2019-03-25T06:12:31.633Z,4.10
2019-03-25T06:15:02.997Z,4.00
2019-03-25T06:17:45.209Z,4.00
2019-03-25T06:20:17.415Z,3.90
2019-03-25T06:22:48.309Z,3.90
2019-03-25T06:25:19.765Z,3.90
2019-03-25T06:27:51.036Z,3.80
2019-03-25T06:30:22.072Z,3.80
2019-03-25T06:32:52.969Z,3.80
2019-03-25T06:35:23.902Z,3.70
2019-03-25T06:37:54.786Z,3.70
2019-03-25T06:40:26.774Z,3.70
2019-03-25T06:42:57.707Z,3.70
2019-03-25T06:45:28.600Z,3.70
2019-03-25T06:47:59.486Z,3.70
2019-03-25T06:50:30.452Z,3.70
2019-03-25T06:53:01.345Z,3.70
2019-03-25T06:55:32.273Z,3.80
2019-03-25T06:58:03.153Z,3.70
2019-03-25T07:00:35.148Z,3.70
2019-03-25T07:03:06.370Z,3.70
2019-03-25T07:05:37.571Z,3.70
2019-03-25T07:08:08.453Z,3.80
2019-03-25T07:10:39.375Z,3.80
2019-03-25T07:13:10.265Z,3.80
2019-03-25T07:15:41.250Z,3.90
2019-03-25T07:18:12.642Z,3.90
2019-03-25T07:20:43.920Z,3.90
2019-03-25T07:23:14.843Z,3.90
2019-03-25T07:25:46.105Z,4.00
2019-03-25T07:28:16.994Z,4.10
2019-03-25T07:30:47.943Z,4.10
2019-03-25T07:33:18.839Z,4.20
2019-03-25T07:35:49.854Z,4.20
2019-03-25T07:38:20.729Z,4.20
2019-03-25T07:40:52.002Z,4.30
2019-03-25T07:43:22.893Z,4.30
2019-03-25T07:45:53.869Z,4.40
2019-03-25T07:48:24.758Z,4.40
2019-03-25T07:50:55.702Z,4.50
2019-03-25T07:53:26.595Z,4.60
2019-03-25T07:55:57.622Z,4.70
2019-03-25T07:58:28.526Z,4.70
2019-03-25T08:01:00.552Z,4.80
2019-03-25T08:03:31.480Z,4.80
2019-03-25T08:06:02.414Z,4.90
2019-03-25T08:08:33.680Z,5.00
2019-03-25T08:11:04.590Z,5.00
2019-03-25T08:13:35.453Z,5.10
2019-03-25T08:16:06.478Z,5.20
2019-03-25T08:18:37.366Z,5.30
2019-03-25T08:21:08.319Z,5.50
2019-03-25T08:23:39.218Z,5.50
2019-03-25T08:26:10.135Z,5.60
2019-03-25T08:28:41.013Z,5.70
2019-03-25T08:31:12.026Z,5.70
2019-03-25T08:33:42.915Z,5.60
2019-03-25T08:36:13.860Z,5.60
2019-03-25T08:38:44.766Z,5.70
2019-03-25T08:41:16.021Z,5.70
2019-03-25T08:43:46.917Z,5.80
2019-03-25T08:46:18.222Z,5.90
2019-03-25T08:48:50.197Z,6.00
2019-03-25T08:51:21.180Z,6.00
2019-03-25T08:53:52.055Z,6.10
2019-03-25T08:56:22.972Z,6.20
2019-03-25T08:58:53.864Z,6.10
2019-03-25T09:01:24.826Z,6.00
2019-03-25T09:03:55.790Z,6.10
2019-03-25T09:06:26.742Z,6.10
2019-03-25T09:08:57.621Z,6.10
2019-03-25T09:11:28.554Z,6.30
2019-03-25T09:13:59.443Z,6.40
2019-03-25T09:16:31.417Z,6.50
2019-03-25T09:19:02.309Z,6.50
2019-03-25T09:21:33.254Z,6.50
2019-03-25T09:24:04.127Z,6.60
2019-03-25T09:26:35.078Z,6.60
2019-03-25T09:29:05.972Z,6.60
2019-03-25T09:31:37.266Z,6.70
2019-03-25T09:34:08.193Z,6.80
2019-03-25T09:36:39.149Z,6.90
2019-03-25T09:39:10.058Z,6.80
2019-03-25T09:41:40.999Z,6.90
2019-03-25T09:44:11.912Z,6.90
2019-03-25T09:46:42.919Z,6.80
2019-03-25T09:49:13.826Z,6.90
2019-03-25T09:51:44.762Z,6.90
2019-03-25T09:54:15.655Z,6.90
2019-03-25T09:56:46.570Z,7.00
2019-03-25T09:59:17.471Z,7.00
2019-03-25T10:01:48.389Z,7.00
2019-03-25T10:04:20.195Z,7.10
2019-03-25T10:06:51.429Z,7.10
2019-03-25T10:09:22.731Z,7.20
2019-03-25T10:11:53.686Z,7.40
2019-03-25T10:14:24.588Z,7.50
2019-03-25T10:16:55.516Z,7.60
2019-03-25T10:19:26.406Z,7.50
2019-03-25T10:21:57.342Z,7.40
2019-03-25T10:24:28.265Z,7.40
2019-03-25T10:26:59.158Z,7.50
2019-03-25T10:29:30.057Z,7.50
2019-03-25T10:32:01.117Z,7.60
2019-03-25T10:34:32.002Z,7.80
2019-03-25T10:37:03.190Z,7.90
2019-03-25T10:39:34.110Z,8.10
2019-03-25T10:42:05.047Z,8.30
2019-03-25T10:44:35.937Z,8.70
2019-03-25T10:47:07.952Z,8.90
2019-03-25T10:49:38.831Z,9.00
2019-03-25T10:52:09.821Z,9.20
2019-03-25T10:54:40.851Z,9.20
2019-03-25T10:57:12.087Z,9.40
2019-03-25T10:59:43.046Z,9.60
2019-03-25T11:02:14.928Z,9.50
2019-03-25T11:04:45.859Z,9.40
2019-03-25T11:07:17.961Z,9.60
2019-03-25T11:09:48.942Z,9.60
2019-03-25T11:12:19.865Z,9.70
2019-03-25T11:14:50.750Z,10.00
2019-03-25T11:17:21.896Z,10.20
2019-03-25T11:19:52.791Z,10.10
2019-03-25T11:22:23.714Z,9.80
2019-03-25T11:24:54.595Z,9.60
2019-03-25T11:27:25.526Z,9.60
2019-03-25T11:29:57.533Z,9.80
2019-03-25T11:32:28.479Z,10.10
2019-03-25T11:34:59.363Z,10.30
2019-03-25T11:37:30.950Z,10.40
2019-03-25T11:40:01.873Z,10.70
2019-03-25T11:42:33.219Z,10.80
2019-03-25T11:45:04.170Z,10.70
2019-03-25T11:47:35.107Z,10.80
2019-03-25T11:50:06.659Z,10.90
2019-03-25T11:52:37.671Z,11.10
2019-03-25T11:55:08.965Z,11.20
2019-03-25T11:57:39.982Z,11.40
2019-03-25T12:00:11.453Z,11.50
2019-03-25T12:02:42.381Z,11.70
2019-03-25T12:05:13.519Z,11.90
2019-03-25T12:07:44.492Z,11.70
2019-03-25T12:10:16.558Z,11.90
2019-03-25T12:12:47.478Z,11.60
2019-03-25T12:15:18.369Z,11.30
2019-03-25T12:17:49.446Z,11.20
2019-03-25T12:20:20.445Z,11.10
2019-03-25T12:22:51.381Z,10.90
2019-03-25T12:25:22.266Z,10.70
2019-03-25T12:27:53.349Z,10.50
2019-03-25T12:30:24.281Z,10.60
2019-03-25T12:33:03.635Z,10.60
2019-03-25T12:35:27.762Z,10.80
2019-03-25T12:37:58.863Z,10.80
2019-03-25T12:40:29.765Z,10.90
2019-03-25T12:43:00.709Z,10.80
2019-03-25T12:45:31.699Z,11.00
2019-03-25T12:48:02.970Z,11.10
2019-03-25T12:50:33.973Z,11.00
2019-03-25T12:53:04.917Z,11.00
2019-03-25T12:55:35.868Z,11.10
2019-03-25T12:58:07.661Z,11.10
2019-03-25T13:00:44.055Z,11.20
2019-03-25T13:03:15.053Z,11.20
2019-03-25T13:05:46.030Z,11.30
2019-03-25T13:08:17.621Z,11.50
2019-03-25T13:10:48.640Z,11.40
2019-03-25T13:13:19.573Z,11.40
2019-03-25T13:15:50.490Z,11.50
2019-03-25T13:18:21.510Z,11.60
2019-03-25T13:20:52.409Z,11.50
2019-03-25T13:23:23.425Z,11.50
2019-03-25T13:25:54.325Z,11.50
2019-03-25T13:28:25.401Z,11.30
2019-03-25T13:30:56.251Z,10.80
2019-03-25T13:33:29.378Z,10.20
2019-03-25T13:35:59.802Z,9.90
2019-03-25T13:38:30.759Z,9.10
2019-03-25T13:41:01.656Z,8.90
2019-03-25T13:43:32.666Z,8.90
2019-03-25T13:46:05.615Z,8.60
2019-03-25T13:48:36.184Z,8.50
2019-03-25T13:51:07.075Z,8.40
2019-03-25T13:53:38.005Z,8.30
2019-03-25T13:56:08.889Z,8.40
2019-03-25T13:58:40.197Z,8.30
2019-03-25T14:01:11.094Z,8.00
2019-03-25T14:03:42.070Z,7.90
2019-03-25T14:06:13.010Z,8.00
2019-03-25T14:08:43.949Z,8.10
2019-03-25T14:11:14.830Z,8.30
2019-03-25T14:13:49.356Z,8.50
2019-03-25T14:16:18.303Z,8.80
2019-03-25T14:18:49.257Z,8.80
2019-03-25T14:21:20.134Z,8.90
2019-03-25T14:23:51.038Z,9.00
2019-03-25T14:26:21.961Z,8.80
2019-03-25T14:28:52.898Z,8.90
2019-03-25T14:31:23.795Z,9.00
2019-03-25T14:33:54.800Z,9.00
2019-03-25T14:36:36.489Z,9.00
2019-03-25T14:39:07.830Z,8.90
2019-03-25T14:41:38.729Z,8.90
2019-03-25T14:44:09.750Z,8.90
2019-03-25T14:46:40.673Z,8.90
2019-03-25T14:49:11.609Z,9.00
2019-03-25T14:52:01.280Z,8.90
2019-03-25T14:54:35.403Z,9.00
2019-03-25T14:57:06.700Z,8.90
2019-03-25T14:59:37.728Z,9.00
2019-03-25T15:02:08.633Z,9.00
2019-03-25T15:04:40.982Z,8.90
2019-03-25T15:07:11.960Z,8.80
2019-03-25T15:09:42.899Z,8.80
2019-03-25T15:12:13.795Z,8.80
2019-03-25T15:14:44.810Z,8.70
2019-03-25T15:17:15.690Z,8.70
2019-03-25T15:19:46.719Z,8.70
2019-03-25T15:22:17.625Z,8.60
2019-03-25T15:24:48.637Z,8.60
2019-03-25T15:27:19.542Z,8.60
2019-03-25T15:29:50.509Z,8.60
2019-03-25T15:32:21.430Z,8.60
2019-03-25T15:34:52.369Z,8.60
2019-03-25T15:37:23.263Z,8.60
2019-03-25T15:39:54.185Z,8.60
2019-03-25T15:42:25.090Z,8.70
2019-03-25T15:44:56.011Z,8.60
2019-03-25T15:47:26.951Z,8.70
2019-03-25T15:49:57.957Z,8.70
2019-03-25T15:52:29.217Z,8.70
2019-03-25T15:55:00.357Z,8.70
2019-03-25T15:57:31.594Z,8.70
2019-03-25T16:00:02.602Z,8.70
2019-03-25T16:02:33.478Z,8.60
2019-03-25T16:05:04.613Z,8.60
2019-03-25T16:07:35.666Z,8.60
2019-03-25T16:10:07.155Z,8.50
2019-03-25T16:12:38.033Z,8.50
2019-03-25T16:15:10.826Z,8.50
2019-03-25T16:17:43.244Z,8.50
2019-03-25T16:20:15.047Z,8.50
2019-03-25T16:22:46.549Z,8.40
2019-03-25T16:25:28.061Z,8.30
2019-03-25T16:27:58.945Z,8.30
2019-03-25T16:30:29.965Z,8.30
2019-03-25T16:33:01.235Z,8.30
2019-03-25T16:35:32.169Z,8.30
2019-03-25T16:38:03.055Z,8.20
2019-03-25T16:40:33.999Z,8.20
2019-03-25T16:43:05.176Z,8.20
2019-03-25T16:45:36.102Z,8.10
2019-03-25T16:48:07.001Z,8.10
2019-03-25T16:50:37.913Z,8.00
2019-03-25T16:53:08.797Z,8.00
2019-03-25T16:55:39.737Z,8.00
2019-03-25T16:58:10.764Z,8.00
2019-03-25T17:00:41.698Z,7.90
2019-03-25T17:03:12.657Z,7.90
2019-03-25T17:05:43.669Z,7.90
2019-03-25T17:08:14.997Z,7.80
2019-03-25T17:10:45.921Z,7.80
2019-03-25T17:13:16.882Z,7.80
2019-03-25T17:15:48.124Z,7.80
2019-03-25T17:18:19.186Z,7.70
2019-03-25T17:20:51.598Z,7.70
2019-03-25T17:23:22.673Z,7.70
2019-03-25T17:25:53.673Z,7.60
2019-03-25T17:28:24.639Z,7.60
2019-03-25T17:30:55.866Z,7.50
2019-03-25T17:33:26.749Z,7.50
2019-03-25T17:35:57.662Z,7.50
2019-03-25T17:38:28.540Z,7.50
2019-03-25T17:40:59.550Z,7.50
2019-03-25T17:43:30.450Z,7.40
2019-03-25T17:46:01.403Z,7.40
2019-03-25T17:48:33.321Z,7.40
2019-03-25T17:51:04.246Z,7.30
2019-03-25T17:53:35.135Z,7.30
2019-03-25T17:56:07.545Z,7.30
2019-03-25T17:58:38.451Z,7.20
2019-03-25T18:01:15.157Z,7.20
2019-03-25T18:03:46.070Z,7.20
2019-03-25T18:06:17.001Z,7.20
2019-03-25T18:08:47.942Z,7.20
2019-03-25T18:11:18.881Z,7.20
2019-03-25T18:13:49.846Z,7.20
2019-03-25T18:16:20.883Z,7.20
2019-03-25T18:18:53.698Z,7.20
2019-03-25T18:21:25.129Z,7.20
2019-03-25T18:23:55.989Z,7.20
2019-03-25T18:26:26.917Z,7.20
2019-03-25T18:28:58.178Z,7.20
2019-03-25T18:31:29.098Z,7.20
2019-03-25T18:34:00.126Z,7.20
2019-03-25T18:36:31.067Z,7.20
2019-03-25T18:39:01.937Z,7.20
2019-03-25T18:41:34.694Z,7.20
2019-03-25T18:44:05.573Z,7.20
2019-03-25T18:46:36.899Z,7.20
2019-03-25T18:49:07.787Z,7.20
2019-03-25T18:51:38.816Z,7.20
2019-03-25T18:54:10.025Z,7.10
2019-03-25T18:56:41.038Z,7.10
2019-03-25T18:59:11.935Z,7.10
2019-03-25T19:01:53.821Z,7.10
2019-03-25T19:04:15.378Z,7.00
2019-03-25T19:06:49.017Z,7.00
2019-03-25T19:09:20.063Z,7.00
2019-03-25T19:11:51.013Z,6.90
2019-03-25T19:14:21.897Z,6.90
2019-03-25T19:16:53.902Z,6.80
2019-03-25T19:19:24.782Z,6.80
2019-03-25T19:21:55.749Z,6.70
2019-03-25T19:24:26.643Z,6.70
2019-03-25T19:26:57.662Z,6.70
2019-03-25T19:29:28.546Z,6.60
2019-03-25T19:32:06.608Z,6.60
2019-03-25T19:34:32.392Z,6.50
2019-03-25T19:37:04.404Z,6.50
2019-03-25T19:39:35.358Z,6.50
2019-03-25T19:42:06.295Z,6.40
2019-03-25T19:44:37.521Z,6.40
2019-03-25T19:47:08.857Z,6.30
2019-03-25T19:49:39.760Z,6.30
2019-03-25T19:52:11.100Z,6.30
2019-03-25T19:54:42.200Z,6.20
2019-03-25T19:57:13.203Z,6.20
2019-03-25T19:59:44.209Z,6.20
2019-03-25T20:02:19.322Z,6.10
2019-03-25T20:04:47.762Z,6.10
2019-03-25T20:07:19.913Z,6.00
2019-03-25T20:09:50.842Z,6.00
2019-03-25T20:12:21.725Z,6.00
2019-03-25T20:14:52.658Z,5.90
2019-03-25T20:17:23.635Z,5.90
2019-03-25T20:19:54.517Z,5.90
2019-03-25T20:22:25.458Z,5.80
2019-03-25T20:24:56.382Z,5.70
2019-03-25T20:27:27.308Z,5.70
2019-03-25T20:29:58.153Z,5.60
2019-03-25T20:32:32.019Z,5.60
2019-03-25T20:35:01.753Z,5.50
2019-03-25T20:37:33.742Z,5.50
2019-03-25T20:40:04.761Z,5.40
2019-03-25T20:42:35.702Z,5.40
2019-03-25T20:45:07.000Z,5.40
2019-03-25T20:47:37.989Z,5.30
2019-03-25T20:50:10.510Z,5.30
2019-03-25T20:52:41.409Z,5.20
2019-03-25T20:55:12.298Z,5.20
2019-03-25T20:57:43.679Z,5.20
2019-03-25T21:00:17.550Z,5.10
2019-03-25T21:02:48.472Z,5.10
2019-03-25T21:05:19.438Z,5.00
2019-03-25T21:07:50.487Z,5.00
2019-03-25T21:10:21.513Z,4.90
2019-03-25T21:12:52.518Z,4.90
2019-03-25T21:15:23.414Z,4.80
2019-03-25T21:17:54.329Z,4.80
2019-03-25T21:20:25.229Z,4.80
2019-03-25T21:22:56.157Z,4.70
2019-03-25T21:25:27.041Z,4.70
2019-03-25T21:27:59.059Z,4.60
2019-03-25T21:30:30.011Z,4.60
2019-03-25T21:33:01.380Z,4.60
2019-03-25T21:35:32.207Z,4.50
2019-03-25T21:38:04.233Z,4.50
2019-03-25T21:40:35.674Z,4.50
2019-03-25T21:43:06.601Z,4.40
2019-03-25T21:45:37.562Z,4.40
2019-03-25T21:48:08.665Z,4.30
2019-03-25T21:50:39.645Z,4.30
2019-03-25T21:53:10.683Z,4.30
2019-03-25T21:55:41.699Z,4.30
2019-03-25T21:58:12.788Z,4.20
2019-03-25T22:00:43.720Z,4.20
2019-03-25T22:03:14.683Z,4.20
2019-03-25T22:05:45.562Z,4.10
2019-03-25T22:08:16.553Z,4.10
2019-03-25T22:10:47.886Z,4.00
2019-03-25T22:13:18.883Z,4.00
2019-03-25T22:15:49.783Z,4.00
2019-03-25T22:18:21.793Z,4.00
2019-03-25T22:20:52.763Z,3.90
2019-03-25T22:23:23.690Z,3.90
2019-03-25T22:25:55.163Z,3.90
2019-03-25T22:28:26.405Z,3.90
2019-03-25T22:30:57.282Z,3.80
2019-03-25T22:33:28.629Z,3.80
2019-03-25T22:35:59.578Z,3.80
2019-03-25T22:38:30.509Z,3.80
2019-03-25T22:41:02.466Z,3.70
2019-03-25T22:43:33.397Z,3.70
2019-03-25T22:46:04.266Z,3.70
2019-03-25T22:48:35.194Z,3.70
2019-03-25T22:51:06.078Z,3.60
2019-03-25T22:53:38.073Z,3.60
2019-03-25T22:56:08.962Z,3.50
2019-03-25T22:58:39.985Z,3.50
2019-03-25T23:01:10.973Z,3.50
2019-03-25T23:03:41.922Z,3.50
2019-03-25T23:06:12.803Z,3.50
2019-03-25T23:08:43.731Z,3.40
2019-03-25T23:11:14.637Z,3.40
2019-03-25T23:13:45.786Z,3.40
2019-03-25T23:16:16.686Z,3.40
2019-03-25T23:18:47.622Z,3.40
2019-03-25T23:21:18.521Z,3.40
2019-03-25T23:23:49.463Z,3.40
2019-03-25T23:26:20.352Z,3.40
2019-03-25T23:28:51.345Z,3.40
2019-03-25T23:31:22.230Z,3.40
2019-03-25T23:33:53.561Z,3.40
2019-03-25T23:36:24.446Z,3.40
2019-03-25T23:38:55.352Z,3.40
2019-03-25T23:41:26.355Z,3.40
2019-03-25T23:43:57.273Z,3.40
2019-03-25T23:46:28.165Z,3.40
2019-03-25T23:48:59.247Z,3.40
2019-03-25T23:51:30.125Z,3.40
2019-03-25T23:54:14.024Z,3.40
2019-03-25T23:56:45.029Z,3.40
2019-03-25T23:59:16.327Z,3.40
